Malone, Florida
Current Conditions -  °F | °C
As of 7:53 PM on Monday 24 Nov 2014 (Local Time) from KMAI Reporting Station
Broken Clouds Broken Clouds  
Wind Chill: 63°   Ceiling: 11000
Heat Index: 63°   Visibility: 10mi
Dew Point: 63°   Wind: 7mph
Humidity: 100%   Direction: 180°S
Pressure: 29.94"   Gusts: NA
Location:  30.96°N, 85.16°W
Report Text: KMAI 250153Z AUTO 18006KT 10SM BKN110 17/17 A2994 RMK AO2 RAB01E31 SLP137 P0000 T01720172 $
Loading
Personal Weather Stations






























Interactive Weather Map New forecast layout! Learn more

10-Day Weather Forecast

Advertisements
Track Severe Weather on mobile